FKYS/NSI METAR and TAF weather

Enter ICAO airport designator
Station Type Date Time Source
FKYS METAR 2019/02/23 17:00 UTC NOAA

FKYS 231700Z 24006KT 200V270 9999 TS BKN020 FEW026CB 29/21 Q1013 NOSIG


Station Type Date Time Source
FKYS Decoded METAR 2019/02/23 17:00 UTC NOAA

Yaounde, Cameroon (FKYS) 03-50N 011-31E 760M
Feb 23, 2019 - 12:00 PM EST / 2019.02.23 1700 UTC
Wind: from the WSW (240 degrees) at 7 MPH (6 KT) (direction variable):0
Visibility: greater than 7 mile(s):0
Sky conditions: mostly cloudy
Weather: thunder; Cumulonimbus clouds observed
Temperature: 84 F (29 C)
Dew Point: 69 F (21 C)
Relative Humidity: 62%
Pressure (altimeter): 29.91 in. Hg (1013 hPa)
ob: FKYS 231700Z 24006KT 200V270 9999 TS BKN020 FEW026CB 29/21 Q1013 NOSIG
cycle: 17

Station Type Date Time Source
FKYS TAF 2019/02/23 12:30 UTC NOAA

TAF TAF FKYS 231100Z 2312/2412 VRB07KT 9999 SCT020
TEMPO 2315/2322 TS BKN013 FEW020CB
BECMG 2322/2324 BKN006
TEMPO 2404/2407 3000 BR
BECMG 2407/2409 BKN016


Example: see airport list